sensor_id;sensor_type;location;lat;lon;timestamp;temperature;humidity
11532;DHT22;5822;51.000;5.874;2022-11-04T00:01:24;14.00;99.90
11532;DHT22;5822;51.000;5.874;2022-11-04T00:03:51;13.90;99.90
11532;DHT22;5822;51.000;5.874;2022-11-04T00:06:18;14.00;99.90
11532;DHT22;5822;51.000;5.874;2022-11-04T00:08:51;14.00;99.90
11532;DHT22;5822;51.000;5.874;2022-11-04T00:11:17;13.90;99.90
11532;DHT22;5822;51.000;5.874;2022-11-04T00:14:03;14.00;99.90
11532;DHT22;5822;51.000;5.874;2022-11-04T00:16:29;13.80;99.90
11532;DHT22;5822;51.000;5.874;2022-11-04T00:19:13;13.80;99.90
11532;DHT22;5822;51.000;5.874;2022-11-04T00:21:39;13.80;99.90
11532;DHT22;5822;51.000;5.874;2022-11-04T00:24:23;13.90;99.90
11532;DHT22;5822;51.000;5.874;2022-11-04T00:27:16;13.90;99.90
11532;DHT22;5822;51.000;5.874;2022-11-04T00:30:02;13.90;99.90
11532;DHT22;5822;51.000;5.874;2022-11-04T00:32:31;14.00;99.90
11532;DHT22;5822;51.000;5.874;2022-11-04T00:35:15;14.00;99.90
11532;DHT22;5822;51.000;5.874;2022-11-04T00:37:42;13.90;99.90
11532;DHT22;5822;51.000;5.874;2022-11-04T00:40:10;13.80;99.90
11532;DHT22;5822;51.000;5.874;2022-11-04T00:42:36;13.80;99.90
11532;DHT22;5822;51.000;5.874;2022-11-04T00:45:02;13.80;99.90
11532;DHT22;5822;51.000;5.874;2022-11-04T00:47:28;13.80;99.90
11532;DHT22;5822;51.000;5.874;2022-11-04T00:49:54;13.80;99.90
11532;DHT22;5822;51.000;5.874;2022-11-04T00:52:20;13.90;99.90
11532;DHT22;5822;51.000;5.874;2022-11-04T00:54:46;13.80;99.90
11532;DHT22;5822;51.000;5.874;2022-11-04T00:57:13;13.80;99.90
11532;DHT22;5822;51.000;5.874;2022-11-04T00:59:39;13.70;99.90
11532;DHT22;5822;51.000;5.874;2022-11-04T01:02:06;13.70;99.90
11532;DHT22;5822;51.000;5.874;2022-11-04T01:04:31;13.70;99.90
11532;DHT22;5822;51.000;5.874;2022-11-04T01:06:57;13.70;99.90
11532;DHT22;5822;51.000;5.874;2022-11-04T01:09:23;13.70;99.90
11532;DHT22;5822;51.000;5.874;2022-11-04T01:11:48;13.60;99.90
11532;DHT22;5822;51.000;5.874;2022-11-04T01:14:14;13.70;99.90
11532;DHT22;5822;51.000;5.874;2022-11-04T01:16:40;13.60;99.90
11532;DHT22;5822;51.000;5.874;2022-11-04T01:19:06;13.40;99.90
11532;DHT22;5822;51.000;5.874;2022-11-04T01:21:32;13.40;99.90
11532;DHT22;5822;51.000;5.874;2022-11-04T01:23:58;13.40;99.90
11532;DHT22;5822;51.000;5.874;2022-11-04T01:26:25;13.50;99.90
11532;DHT22;5822;51.000;5.874;2022-11-04T01:28:52;13.50;99.90
11532;DHT22;5822;51.000;5.874;2022-11-04T01:31:24;13.40;99.90
11532;DHT22;5822;51.000;5.874;2022-11-04T01:33:51;13.50;99.90
11532;DHT22;5822;51.000;5.874;2022-11-04T01:36:18;13.50;99.90
11532;DHT22;5822;51.000;5.874;2022-11-04T01:38:44;13.40;99.90
11532;DHT22;5822;51.000;5.874;2022-11-04T01:41:19;13.40;99.90
11532;DHT22;5822;51.000;5.874;2022-11-04T01:46:34;13.40;99.90
11532;DHT22;5822;51.000;5.874;2022-11-04T01:51:35;13.50;99.90
11532;DHT22;5822;51.000;5.874;2022-11-04T01:54:03;13.50;99.90
11532;DHT22;5822;51.000;5.874;2022-11-04T01:56:30;13.30;99.90
11532;DHT22;5822;51.000;5.874;2022-11-04T01:58:59;13.30;99.90
11532;DHT22;5822;51.000;5.874;2022-11-04T02:01:28;13.30;99.90
11532;DHT22;5822;51.000;5.874;2022-11-04T02:03:57;13.30;99.90
11532;DHT22;5822;51.000;5.874;2022-11-04T02:06:41;13.30;99.90
11532;DHT22;5822;51.000;5.874;2022-11-04T02:09:07;13.30;99.90
11532;DHT22;5822;51.000;5.874;2022-11-04T02:11:33;13.30;99.90
11532;DHT22;5822;51.000;5.874;2022-11-04T02:14:17;13.20;99.90
11532;DHT22;5822;51.000;5.874;2022-11-04T02:16:44;13.10;99.90
11532;DHT22;5822;51.000;5.874;2022-11-04T02:19:39;13.10;99.90
11532;DHT22;5822;51.000;5.874;2022-11-04T02:25:03;13.10;99.90
11532;DHT22;5822;51.000;5.874;2022-11-04T02:31:45;13.10;99.90
11532;DHT22;5822;51.000;5.874;2022-11-04T02:33:52;13.00;99.90
11532;DHT22;5822;51.000;5.874;2022-11-04T02:36:46;13.10;99.90
11532;DHT22;5822;51.000;5.874;2022-11-04T02:45:20;13.00;99.90
11532;DHT22;5822;51.000;5.874;2022-11-04T02:47:56;13.10;99.90
11532;DHT22;5822;51.000;5.874;2022-11-04T02:50:30;13.00;99.90
11532;DHT22;5822;51.000;5.874;2022-11-04T02:53:11;13.00;99.90
11532;DHT22;5822;51.000;5.874;2022-11-04T02:55:44;12.90;99.90
11532;DHT22;5822;51.000;5.874;2022-11-04T02:58:18;13.00;99.90
11532;DHT22;5822;51.000;5.874;2022-11-04T03:00:47;13.00;99.90
11532;DHT22;5822;51.000;5.874;2022-11-04T03:03:18;13.00;99.90
11532;DHT22;5822;51.000;5.874;2022-11-04T03:05:48;12.90;99.90
11532;DHT22;5822;51.000;5.874;2022-11-04T03:08:26;12.90;99.90
11532;DHT22;5822;51.000;5.874;2022-11-04T03:10:58;12.90;99.90
11532;DHT22;5822;51.000;5.874;2022-11-04T03:16:02;12.90;99.90
11532;DHT22;5822;51.000;5.874;2022-11-04T03:18:40;12.90;99.90
11532;DHT22;5822;51.000;5.874;2022-11-04T03:21:10;12.90;99.90
11532;DHT22;5822;51.000;5.874;2022-11-04T03:23:37;12.80;99.90
11532;DHT22;5822;51.000;5.874;2022-11-04T03:26:25;12.90;99.90
11532;DHT22;5822;51.000;5.874;2022-11-04T03:32:05;12.90;99.90
11532;DHT22;5822;51.000;5.874;2022-11-04T03:34:33;12.90;99.90
11532;DHT22;5822;51.000;5.874;2022-11-04T03:37:00;12.80;99.90
11532;DHT22;5822;51.000;5.874;2022-11-04T03:39:25;12.80;99.90
11532;DHT22;5822;51.000;5.874;2022-11-04T03:41:56;12.80;99.90
11532;DHT22;5822;51.000;5.874;2022-11-04T03:44:23;12.70;99.90
11532;DHT22;5822;51.000;5.874;2022-11-04T03:46:51;12.70;99.90
11532;DHT22;5822;51.000;5.874;2022-11-04T03:49:19;12.70;99.90
11532;DHT22;5822;51.000;5.874;2022-11-04T03:51:45;12.80;99.90
11532;DHT22;5822;51.000;5.874;2022-11-04T03:54:12;12.90;99.90
11532;DHT22;5822;51.000;5.874;2022-11-04T04:02:02;12.70;99.90
11532;DHT22;5822;51.000;5.874;2022-11-04T04:05:04;12.90;99.90
11532;DHT22;5822;51.000;5.874;2022-11-04T04:07:37;12.90;99.90
11532;DHT22;5822;51.000;5.874;2022-11-04T04:10:17;12.90;99.90
11532;DHT22;5822;51.000;5.874;2022-11-04T04:13:17;13.00;99.90
11532;DHT22;5822;51.000;5.874;2022-11-04T04:19:15;12.90;99.90
11532;DHT22;5822;51.000;5.874;2022-11-04T04:22:11;12.70;99.90
11532;DHT22;5822;51.000;5.874;2022-11-04T04:24:40;12.70;99.90
11532;DHT22;5822;51.000;5.874;2022-11-04T04:27:27;12.70;99.90
11532;DHT22;5822;51.000;5.874;2022-11-04T04:30:10;12.70;99.90
11532;DHT22;5822;51.000;5.874;2022-11-04T04:32:46;12.70;99.90
11532;DHT22;5822;51.000;5.874;2022-11-04T04:35:12;12.70;99.90
11532;DHT22;5822;51.000;5.874;2022-11-04T04:38:00;12.70;99.90
11532;DHT22;5822;51.000;5.874;2022-11-04T04:41:00;12.70;99.90
11532;DHT22;5822;51.000;5.874;2022-11-04T04:43:46;12.70;99.90
11532;DHT22;5822;51.000;5.874;2022-11-04T04:46:38;12.70;99.90
11532;DHT22;5822;51.000;5.874;2022-11-04T04:49:07;12.70;99.90
11532;DHT22;5822;51.000;5.874;2022-11-04T04:51:35;12.70;99.90
11532;DHT22;5822;51.000;5.874;2022-11-04T04:54:03;12.70;99.90
11532;DHT22;5822;51.000;5.874;2022-11-04T04:56:28;12.60;99.90
11532;DHT22;5822;51.000;5.874;2022-11-04T04:58:54;12.60;99.90
11532;DHT22;5822;51.000;5.874;2022-11-04T05:01:20;12.50;99.90
11532;DHT22;5822;51.000;5.874;2022-11-04T05:03:45;12.50;99.90
11532;DHT22;5822;51.000;5.874;2022-11-04T05:06:11;12.50;99.90
11532;DHT22;5822;51.000;5.874;2022-11-04T05:08:36;12.50;99.90
11532;DHT22;5822;51.000;5.874;2022-11-04T05:11:02;12.50;99.90
11532;DHT22;5822;51.000;5.874;2022-11-04T05:13:28;12.50;99.90
11532;DHT22;5822;51.000;5.874;2022-11-04T05:15:57;12.50;99.90
11532;DHT22;5822;51.000;5.874;2022-11-04T05:18:27;12.50;99.90
11532;DHT22;5822;51.000;5.874;2022-11-04T05:20:52;12.40;99.90
11532;DHT22;5822;51.000;5.874;2022-11-04T05:23:18;12.50;99.90
11532;DHT22;5822;51.000;5.874;2022-11-04T05:25:43;12.50;99.90
11532;DHT22;5822;51.000;5.874;2022-11-04T05:28:09;12.50;99.90
11532;DHT22;5822;51.000;5.874;2022-11-04T05:30:35;12.50;99.90
11532;DHT22;5822;51.000;5.874;2022-11-04T05:33:01;12.50;99.90
11532;DHT22;5822;51.000;5.874;2022-11-04T05:35:27;12.50;99.90
11532;DHT22;5822;51.000;5.874;2022-11-04T05:37:54;12.50;99.90
11532;DHT22;5822;51.000;5.874;2022-11-04T05:40:20;12.50;99.90
11532;DHT22;5822;51.000;5.874;2022-11-04T05:42:46;12.50;99.90
11532;DHT22;5822;51.000;5.874;2022-11-04T05:45:11;12.50;99.90
11532;DHT22;5822;51.000;5.874;2022-11-04T05:47:37;12.60;99.90
11532;DHT22;5822;51.000;5.874;2022-11-04T05:50:03;12.60;99.90
11532;DHT22;5822;51.000;5.874;2022-11-04T05:52:28;12.60;99.90
11532;DHT22;5822;51.000;5.874;2022-11-04T05:54:54;12.70;99.90
11532;DHT22;5822;51.000;5.874;2022-11-04T05:57:20;12.60;99.90
11532;DHT22;5822;51.000;5.874;2022-11-04T05:59:45;12.70;99.90
11532;DHT22;5822;51.000;5.874;2022-11-04T06:02:11;12.70;99.90
11532;DHT22;5822;51.000;5.874;2022-11-04T06:04:37;12.70;99.90
11532;DHT22;5822;51.000;5.874;2022-11-04T06:07:02;12.70;99.90
11532;DHT22;5822;51.000;5.874;2022-11-04T06:09:28;12.70;99.90
11532;DHT22;5822;51.000;5.874;2022-11-04T06:12:11;12.70;99.90
11532;DHT22;5822;51.000;5.874;2022-11-04T06:14:39;12.80;99.90
11532;DHT22;5822;51.000;5.874;2022-11-04T06:17:05;12.90;99.90
11532;DHT22;5822;51.000;5.874;2022-11-04T06:19:30;13.00;99.90
11532;DHT22;5822;51.000;5.874;2022-11-04T06:21:56;13.10;99.90
11532;DHT22;5822;51.000;5.874;2022-11-04T06:24:22;13.00;99.90
11532;DHT22;5822;51.000;5.874;2022-11-04T06:26:47;13.10;99.90
11532;DHT22;5822;51.000;5.874;2022-11-04T06:29:13;13.20;99.90
11532;DHT22;5822;51.000;5.874;2022-11-04T06:31:38;13.20;99.90
11532;DHT22;5822;51.000;5.874;2022-11-04T06:34:04;13.00;99.90
11532;DHT22;5822;51.000;5.874;2022-11-04T06:36:30;13.00;99.90
11532;DHT22;5822;51.000;5.874;2022-11-04T06:38:55;13.10;99.90
11532;DHT22;5822;51.000;5.874;2022-11-04T06:41:21;13.10;99.90
11532;DHT22;5822;51.000;5.874;2022-11-04T06:43:47;13.10;99.90
11532;DHT22;5822;51.000;5.874;2022-11-04T06:46:33;13.10;99.90
11532;DHT22;5822;51.000;5.874;2022-11-04T06:48:59;13.00;99.90
11532;DHT22;5822;51.000;5.874;2022-11-04T06:51:25;13.00;99.90
11532;DHT22;5822;51.000;5.874;2022-11-04T06:53:51;13.00;99.90
11532;DHT22;5822;51.000;5.874;2022-11-04T06:56:16;13.00;99.90
11532;DHT22;5822;51.000;5.874;2022-11-04T06:58:42;13.10;99.90
11532;DHT22;5822;51.000;5.874;2022-11-04T07:01:08;13.10;99.90
11532;DHT22;5822;51.000;5.874;2022-11-04T07:03:34;13.10;99.90
11532;DHT22;5822;51.000;5.874;2022-11-04T07:06:07;13.10;99.90
11532;DHT22;5822;51.000;5.874;2022-11-04T07:08:33;13.30;99.90
11532;DHT22;5822;51.000;5.874;2022-11-04T07:10:59;13.30;99.90
11532;DHT22;5822;51.000;5.874;2022-11-04T07:13:25;13.20;99.90
11532;DHT22;5822;51.000;5.874;2022-11-04T07:15:51;13.10;99.90
11532;DHT22;5822;51.000;5.874;2022-11-04T07:18:16;13.00;99.90
11532;DHT22;5822;51.000;5.874;2022-11-04T07:20:42;13.00;99.90
11532;DHT22;5822;51.000;5.874;2022-11-04T07:23:07;13.10;99.90
11532;DHT22;5822;51.000;5.874;2022-11-04T07:25:33;13.10;99.90
11532;DHT22;5822;51.000;5.874;2022-11-04T07:27:59;13.10;99.90
11532;DHT22;5822;51.000;5.874;2022-11-04T07:30:25;13.00;99.90
11532;DHT22;5822;51.000;5.874;2022-11-04T07:32:51;12.90;99.90
11532;DHT22;5822;51.000;5.874;2022-11-04T07:35:17;13.10;99.90
11532;DHT22;5822;51.000;5.874;2022-11-04T07:37:43;13.10;99.90
11532;DHT22;5822;51.000;5.874;2022-11-04T07:40:09;13.10;99.90
11532;DHT22;5822;51.000;5.874;2022-11-04T07:42:34;13.10;99.90
11532;DHT22;5822;51.000;5.874;2022-11-04T07:45:00;13.20;99.90
11532;DHT22;5822;51.000;5.874;2022-11-04T07:47:29;13.30;99.90
11532;DHT22;5822;51.000;5.874;2022-11-04T07:49:55;13.30;99.90
11532;DHT22;5822;51.000;5.874;2022-11-04T07:52:20;13.30;99.90
11532;DHT22;5822;51.000;5.874;2022-11-04T07:54:46;13.30;99.90
11532;DHT22;5822;51.000;5.874;2022-11-04T07:57:12;13.30;99.90
11532;DHT22;5822;51.000;5.874;2022-11-04T07:59:38;13.40;99.90
11532;DHT22;5822;51.000;5.874;2022-11-04T08:02:04;13.50;99.90
11532;DHT22;5822;51.000;5.874;2022-11-04T08:04:30;13.50;99.90
11532;DHT22;5822;51.000;5.874;2022-11-04T08:06:55;13.60;99.90
11532;DHT22;5822;51.000;5.874;2022-11-04T08:09:21;13.50;99.90
11532;DHT22;5822;51.000;5.874;2022-11-04T08:11:47;13.50;99.90
11532;DHT22;5822;51.000;5.874;2022-11-04T08:14:13;13.60;99.90
11532;DHT22;5822;51.000;5.874;2022-11-04T08:16:39;13.70;99.90
11532;DHT22;5822;51.000;5.874;2022-11-04T08:19:05;13.60;99.90
11532;DHT22;5822;51.000;5.874;2022-11-04T08:21:31;13.50;99.90
11532;DHT22;5822;51.000;5.874;2022-11-04T08:23:57;13.50;99.90
11532;DHT22;5822;51.000;5.874;2022-11-04T08:26:23;13.50;99.90
11532;DHT22;5822;51.000;5.874;2022-11-04T08:28:49;13.40;99.90
11532;DHT22;5822;51.000;5.874;2022-11-04T08:31:24;13.40;99.90
11532;DHT22;5822;51.000;5.874;2022-11-04T08:33:51;13.50;99.90
11532;DHT22;5822;51.000;5.874;2022-11-04T08:36:23;13.50;99.90
11532;DHT22;5822;51.000;5.874;2022-11-04T08:38:49;13.50;99.90
11532;DHT22;5822;51.000;5.874;2022-11-04T08:41:17;13.60;99.90
11532;DHT22;5822;51.000;5.874;2022-11-04T08:43:44;13.60;99.90
11532;DHT22;5822;51.000;5.874;2022-11-04T08:46:10;13.60;99.90
11532;DHT22;5822;51.000;5.874;2022-11-04T08:48:38;13.70;99.90
11532;DHT22;5822;51.000;5.874;2022-11-04T08:51:06;13.70;99.90
11532;DHT22;5822;51.000;5.874;2022-11-04T08:53:35;13.70;99.90
11532;DHT22;5822;51.000;5.874;2022-11-04T08:56:11;13.80;99.90
11532;DHT22;5822;51.000;5.874;2022-11-04T08:58:37;13.80;99.90
11532;DHT22;5822;51.000;5.874;2022-11-04T09:01:04;13.80;99.90
11532;DHT22;5822;51.000;5.874;2022-11-04T09:03:30;13.80;99.90
11532;DHT22;5822;51.000;5.874;2022-11-04T09:05:57;13.70;99.90
11532;DHT22;5822;51.000;5.874;2022-11-04T09:08:23;13.70;99.90
11532;DHT22;5822;51.000;5.874;2022-11-04T09:10:49;13.80;99.90
11532;DHT22;5822;51.000;5.874;2022-11-04T09:13:15;13.80;99.90
11532;DHT22;5822;51.000;5.874;2022-11-04T09:15:41;13.80;99.90
11532;DHT22;5822;51.000;5.874;2022-11-04T09:18:07;13.70;99.90
11532;DHT22;5822;51.000;5.874;2022-11-04T09:20:33;13.80;99.90
11532;DHT22;5822;51.000;5.874;2022-11-04T09:22:59;13.70;99.90
11532;DHT22;5822;51.000;5.874;2022-11-04T09:25:25;13.80;99.90
11532;DHT22;5822;51.000;5.874;2022-11-04T09:27:50;13.80;99.90
11532;DHT22;5822;51.000;5.874;2022-11-04T09:30:16;13.90;99.90
11532;DHT22;5822;51.000;5.874;2022-11-04T09:32:42;14.00;99.90
11532;DHT22;5822;51.000;5.874;2022-11-04T09:35:08;14.10;99.90
11532;DHT22;5822;51.000;5.874;2022-11-04T09:37:34;14.00;99.90
11532;DHT22;5822;51.000;5.874;2022-11-04T09:39:59;14.10;99.90
11532;DHT22;5822;51.000;5.874;2022-11-04T09:45:28;14.20;99.90
11532;DHT22;5822;51.000;5.874;2022-11-04T09:48:01;14.00;99.90
11532;DHT22;5822;51.000;5.874;2022-11-04T09:50:40;14.00;99.90
11532;DHT22;5822;51.000;5.874;2022-11-04T09:53:20;14.00;99.90
11532;DHT22;5822;51.000;5.874;2022-11-04T09:55:54;14.10;99.90
11532;DHT22;5822;51.000;5.874;2022-11-04T09:58:21;14.10;99.90
11532;DHT22;5822;51.000;5.874;2022-11-04T10:01:35;14.10;99.90
11532;DHT22;5822;51.000;5.874;2022-11-04T10:20:37;14.40;99.90
11532;DHT22;5822;51.000;5.874;2022-11-04T10:23:21;14.40;99.90
11532;DHT22;5822;51.000;5.874;2022-11-04T10:26:15;14.40;99.90
11532;DHT22;5822;51.000;5.874;2022-11-04T10:29:02;14.30;99.90
11532;DHT22;5822;51.000;5.874;2022-11-04T10:31:29;14.30;99.90
11532;DHT22;5822;51.000;5.874;2022-11-04T10:34:04;14.40;99.90
11532;DHT22;5822;51.000;5.874;2022-11-04T10:36:34;14.40;99.90
11532;DHT22;5822;51.000;5.874;2022-11-04T10:39:03;14.40;99.90
11532;DHT22;5822;51.000;5.874;2022-11-04T10:41:37;14.50;99.90
11532;DHT22;5822;51.000;5.874;2022-11-04T10:44:22;14.50;99.90
11532;DHT22;5822;51.000;5.874;2022-11-04T10:52:24;14.50;99.90
11532;DHT22;5822;51.000;5.874;2022-11-04T10:54:50;14.50;99.90
11532;DHT22;5822;51.000;5.874;2022-11-04T10:57:20;14.50;99.90
11532;DHT22;5822;51.000;5.874;2022-11-04T11:07:46;14.40;99.90
11532;DHT22;5822;51.000;5.874;2022-11-04T11:17:55;14.40;99.90
11532;DHT22;5822;51.000;5.874;2022-11-04T11:20:23;14.40;99.90
11532;DHT22;5822;51.000;5.874;2022-11-04T11:22:51;14.40;99.90
11532;DHT22;5822;51.000;5.874;2022-11-04T11:25:25;14.40;99.90
11532;DHT22;5822;51.000;5.874;2022-11-04T11:28:00;14.40;99.90
11532;DHT22;5822;51.000;5.874;2022-11-04T11:30:29;14.40;99.90
11532;DHT22;5822;51.000;5.874;2022-11-04T11:33:03;14.40;99.90
11532;DHT22;5822;51.000;5.874;2022-11-04T11:35:41;14.40;99.90
11532;DHT22;5822;51.000;5.874;2022-11-04T11:38:24;14.50;99.90
11532;DHT22;5822;51.000;5.874;2022-11-04T11:41:02;14.60;99.90
11532;DHT22;5822;51.000;5.874;2022-11-04T11:43:30;14.60;99.90
11532;DHT22;5822;51.000;5.874;2022-11-04T11:45:57;14.60;99.90
11532;DHT22;5822;51.000;5.874;2022-11-04T11:48:42;14.70;99.90
11532;DHT22;5822;51.000;5.874;2022-11-04T11:51:13;14.70;99.90
11532;DHT22;5822;51.000;5.874;2022-11-04T11:53:41;14.60;99.90
11532;DHT22;5822;51.000;5.874;2022-11-04T11:56:31;14.60;99.90
11532;DHT22;5822;51.000;5.874;2022-11-04T12:05:00;14.60;99.90
11532;DHT22;5822;51.000;5.874;2022-11-04T12:15:38;14.60;99.90
11532;DHT22;5822;51.000;5.874;2022-11-04T12:23:30;14.50;99.90
11532;DHT22;5822;51.000;5.874;2022-11-04T12:31:56;14.50;99.90
11532;DHT22;5822;51.000;5.874;2022-11-04T12:34:45;14.60;99.90
11532;DHT22;5822;51.000;5.874;2022-11-04T12:40:21;14.50;99.90
11532;DHT22;5822;51.000;5.874;2022-11-04T12:42:55;14.60;99.90
11532;DHT22;5822;51.000;5.874;2022-11-04T12:48:43;14.60;99.90
11532;DHT22;5822;51.000;5.874;2022-11-04T12:56:36;14.40;99.90
11532;DHT22;5822;51.000;5.874;2022-11-04T13:01:41;14.50;99.90
11532;DHT22;5822;51.000;5.874;2022-11-04T13:06:44;14.50;99.90
11532;DHT22;5822;51.000;5.874;2022-11-04T13:09:15;14.50;99.90
11532;DHT22;5822;51.000;5.874;2022-11-04T13:11:49;14.50;99.90
11532;DHT22;5822;51.000;5.874;2022-11-04T13:14:22;14.50;99.90
11532;DHT22;5822;51.000;5.874;2022-11-04T13:16:57;14.60;99.90
11532;DHT22;5822;51.000;5.874;2022-11-04T13:19:25;14.60;99.90
11532;DHT22;5822;51.000;5.874;2022-11-04T13:21:56;14.60;99.90
11532;DHT22;5822;51.000;5.874;2022-11-04T13:24:34;14.60;99.90
11532;DHT22;5822;51.000;5.874;2022-11-04T13:27:08;14.60;99.90
11532;DHT22;5822;51.000;5.874;2022-11-04T13:29:38;14.60;99.90
11532;DHT22;5822;51.000;5.874;2022-11-04T13:37:33;14.60;99.90
11532;DHT22;5822;51.000;5.874;2022-11-04T13:43:32;14.50;99.90
11532;DHT22;5822;51.000;5.874;2022-11-04T13:48:33;14.50;99.90
11532;DHT22;5822;51.000;5.874;2022-11-04T13:51:09;14.50;99.90
11532;DHT22;5822;51.000;5.874;2022-11-04T13:53:55;14.50;99.90
11532;DHT22;5822;51.000;5.874;2022-11-04T13:56:41;14.60;99.90
11532;DHT22;5822;51.000;5.874;2022-11-04T13:59:19;14.50;99.90
11532;DHT22;5822;51.000;5.874;2022-11-04T14:01:47;14.50;99.90
11532;DHT22;5822;51.000;5.874;2022-11-04T14:06:55;14.60;99.90
11532;DHT22;5822;51.000;5.874;2022-11-04T14:15:22;14.60;99.90
11532;DHT22;5822;51.000;5.874;2022-11-04T14:25:34;14.50;99.90
11532;DHT22;5822;51.000;5.874;2022-11-04T14:28:15;14.50;99.90
11532;DHT22;5822;51.000;5.874;2022-11-04T14:30:45;14.50;99.90
11532;DHT22;5822;51.000;5.874;2022-11-04T14:33:30;14.50;99.90
11532;DHT22;5822;51.000;5.874;2022-11-04T14:38:40;14.60;99.90
11532;DHT22;5822;51.000;5.874;2022-11-04T14:43:54;14.50;99.90
11532;DHT22;5822;51.000;5.874;2022-11-04T14:46:22;14.50;99.90
11532;DHT22;5822;51.000;5.874;2022-11-04T14:48:54;14.60;99.90
11532;DHT22;5822;51.000;5.874;2022-11-04T14:51:27;14.50;99.90
11532;DHT22;5822;51.000;5.874;2022-11-04T14:54:02;14.60;99.90
11532;DHT22;5822;51.000;5.874;2022-11-04T14:56:28;14.60;99.90
11532;DHT22;5822;51.000;5.874;2022-11-04T14:59:00;14.60;99.90
11532;DHT22;5822;51.000;5.874;2022-11-04T15:01:29;14.60;99.90
11532;DHT22;5822;51.000;5.874;2022-11-04T15:04:03;14.60;99.90
11532;DHT22;5822;51.000;5.874;2022-11-04T15:06:29;14.60;99.90
11532;DHT22;5822;51.000;5.874;2022-11-04T15:08:56;14.60;99.90
11532;DHT22;5822;51.000;5.874;2022-11-04T15:11:26;14.60;99.90
11532;DHT22;5822;51.000;5.874;2022-11-04T15:14:19;14.60;99.90
11532;DHT22;5822;51.000;5.874;2022-11-04T15:16:48;14.60;99.90
11532;DHT22;5822;51.000;5.874;2022-11-04T15:19:28;14.60;99.90
11532;DHT22;5822;51.000;5.874;2022-11-04T15:21:54;14.50;99.90
11532;DHT22;5822;51.000;5.874;2022-11-04T15:24:20;14.50;99.90
11532;DHT22;5822;51.000;5.874;2022-11-04T15:26:51;14.50;99.90
11532;DHT22;5822;51.000;5.874;2022-11-04T15:29:20;14.50;99.90
11532;DHT22;5822;51.000;5.874;2022-11-04T15:31:55;14.40;99.90
11532;DHT22;5822;51.000;5.874;2022-11-04T15:34:22;14.40;99.90
11532;DHT22;5822;51.000;5.874;2022-11-04T15:36:48;14.40;99.90
11532;DHT22;5822;51.000;5.874;2022-11-04T15:41:48;14.40;99.90
11532;DHT22;5822;51.000;5.874;2022-11-04T15:44:36;14.40;99.90
11532;DHT22;5822;51.000;5.874;2022-11-04T15:47:25;14.40;99.90
11532;DHT22;5822;51.000;5.874;2022-11-04T15:50:01;14.40;99.90
11532;DHT22;5822;51.000;5.874;2022-11-04T15:52:28;14.50;99.90
11532;DHT22;5822;51.000;5.874;2022-11-04T15:54:58;14.50;99.90
11532;DHT22;5822;51.000;5.874;2022-11-04T15:57:37;14.50;99.90
11532;DHT22;5822;51.000;5.874;2022-11-04T16:00:07;14.50;99.90
11532;DHT22;5822;51.000;5.874;2022-11-04T16:02:38;14.50;99.90
11532;DHT22;5822;51.000;5.874;2022-11-04T16:07:38;14.50;99.90
11532;DHT22;5822;51.000;5.874;2022-11-04T16:13:20;14.50;99.90
11532;DHT22;5822;51.000;5.874;2022-11-04T16:15:50;14.50;99.90
11532;DHT22;5822;51.000;5.874;2022-11-04T16:18:28;14.60;99.90
11532;DHT22;5822;51.000;5.874;2022-11-04T16:20:58;14.50;99.90
11532;DHT22;5822;51.000;5.874;2022-11-04T16:23:26;14.50;99.90
11532;DHT22;5822;51.000;5.874;2022-11-04T16:26:00;14.50;99.90
11532;DHT22;5822;51.000;5.874;2022-11-04T16:28:33;14.50;99.90
11532;DHT22;5822;51.000;5.874;2022-11-04T16:31:06;14.50;99.90
11532;DHT22;5822;51.000;5.874;2022-11-04T16:33:32;14.50;99.90
11532;DHT22;5822;51.000;5.874;2022-11-04T16:35:58;14.60;99.90
11532;DHT22;5822;51.000;5.874;2022-11-04T16:38:23;14.60;99.90
11532;DHT22;5822;51.000;5.874;2022-11-04T16:40:49;14.50;99.90
11532;DHT22;5822;51.000;5.874;2022-11-04T16:43:17;14.50;99.90
11532;DHT22;5822;51.000;5.874;2022-11-04T16:45:46;14.50;99.90
11532;DHT22;5822;51.000;5.874;2022-11-04T16:48:16;14.50;99.90
11532;DHT22;5822;51.000;5.874;2022-11-04T16:50:43;14.50;99.90
11532;DHT22;5822;51.000;5.874;2022-11-04T16:53:09;14.50;99.90
11532;DHT22;5822;51.000;5.874;2022-11-04T16:55:36;14.40;99.90
11532;DHT22;5822;51.000;5.874;2022-11-04T16:58:04;14.40;99.90
11532;DHT22;5822;51.000;5.874;2022-11-04T17:00:30;14.30;99.90
11532;DHT22;5822;51.000;5.874;2022-11-04T17:03:00;14.30;99.90
11532;DHT22;5822;51.000;5.874;2022-11-04T17:05:26;14.20;99.90
11532;DHT22;5822;51.000;5.874;2022-11-04T17:07:52;14.20;99.90
11532;DHT22;5822;51.000;5.874;2022-11-04T17:10:24;14.10;99.90
11532;DHT22;5822;51.000;5.874;2022-11-04T17:12:50;14.10;99.90
11532;DHT22;5822;51.000;5.874;2022-11-04T17:15:16;14.10;99.90
11532;DHT22;5822;51.000;5.874;2022-11-04T17:17:43;14.10;99.90
11532;DHT22;5822;51.000;5.874;2022-11-04T17:20:14;14.00;99.90
11532;DHT22;5822;51.000;5.874;2022-11-04T17:22:42;14.00;99.90
11532;DHT22;5822;51.000;5.874;2022-11-04T17:25:20;14.00;99.90
11532;DHT22;5822;51.000;5.874;2022-11-04T17:27:47;14.00;99.90
11532;DHT22;5822;51.000;5.874;2022-11-04T17:30:14;14.10;99.90
11532;DHT22;5822;51.000;5.874;2022-11-04T17:32:41;14.10;99.90
11532;DHT22;5822;51.000;5.874;2022-11-04T17:35:08;14.10;99.90
11532;DHT22;5822;51.000;5.874;2022-11-04T17:37:34;14.10;99.90
11532;DHT22;5822;51.000;5.874;2022-11-04T17:39:59;14.10;99.90
11532;DHT22;5822;51.000;5.874;2022-11-04T17:42:25;14.10;99.90
11532;DHT22;5822;51.000;5.874;2022-11-04T17:45:09;14.10;99.90
11532;DHT22;5822;51.000;5.874;2022-11-04T17:47:36;14.00;99.90
11532;DHT22;5822;51.000;5.874;2022-11-04T17:50:03;14.00;99.90
11532;DHT22;5822;51.000;5.874;2022-11-04T17:52:29;14.00;99.90
11532;DHT22;5822;51.000;5.874;2022-11-04T17:54:54;14.00;99.90
11532;DHT22;5822;51.000;5.874;2022-11-04T17:57:20;14.00;99.90
11532;DHT22;5822;51.000;5.874;2022-11-04T17:59:45;14.00;99.90
11532;DHT22;5822;51.000;5.874;2022-11-04T18:02:11;14.00;99.90
11532;DHT22;5822;51.000;5.874;2022-11-04T18:04:36;14.00;99.90
11532;DHT22;5822;51.000;5.874;2022-11-04T18:07:02;13.90;99.90
11532;DHT22;5822;51.000;5.874;2022-11-04T18:09:29;13.90;99.90
11532;DHT22;5822;51.000;5.874;2022-11-04T18:11:55;13.90;99.90
11532;DHT22;5822;51.000;5.874;2022-11-04T18:14:39;13.90;99.90
11532;DHT22;5822;51.000;5.874;2022-11-04T18:17:05;13.90;99.90
11532;DHT22;5822;51.000;5.874;2022-11-04T18:19:30;13.90;99.90
11532;DHT22;5822;51.000;5.874;2022-11-04T18:21:56;13.90;99.90
11532;DHT22;5822;51.000;5.874;2022-11-04T18:24:22;13.90;99.90
11532;DHT22;5822;51.000;5.874;2022-11-04T18:26:48;13.90;99.90
11532;DHT22;5822;51.000;5.874;2022-11-04T18:29:14;13.90;99.90
11532;DHT22;5822;51.000;5.874;2022-11-04T18:31:40;13.90;99.90
11532;DHT22;5822;51.000;5.874;2022-11-04T18:34:10;13.90;99.90
11532;DHT22;5822;51.000;5.874;2022-11-04T18:36:36;13.90;99.90
11532;DHT22;5822;51.000;5.874;2022-11-04T18:39:07;13.80;99.90
11532;DHT22;5822;51.000;5.874;2022-11-04T18:41:36;13.80;99.90